Kimberly Turecamo — WDC6838 — position and weather

sailwx.info

Track history (hours):
 
Tides and Currents Weather Stations Pressure Air Temp Water Temp Dewpoint Dewpoint Depression Visibility Wind Speed Wind Dir Waves Ship Positions

Kimberly Turecamo

Owner: Moran Towing Corporation, New Canaan, CT. More information available from US FCC via Universal Licensing System and Coast Guard Vessel Documentation Center.

Last reported at 2015-Mar-01 01:22 UTC. Time now 2015-Mar-03 09:01 UTC.
Position N 34°28' W 076°16'.

Length 33 m; draft 5 m.

Type: Tug. MMSI: 367061980.

Date/timePositionNaut miles runAvg speedWind from/ knotsBaromVisibWave heightAir tempDewpointWater temp
2015-Mar-01 01:22N 34°28' W 076°16'3 3.5
2015-Mar-01 00:33N 34°27' W 076°19'21 2.9
2015-Feb-28 17:30N 34°14' W 076°38'  
2015-Feb-23 19:32N 39°03' W 075°10'9 9.4
2015-Feb-23 18:33N 39°11' W 075°16'8 7.8
2015-Feb-23 17:33N 39°17' W 075°22'8 7.7
2015-Feb-23 16:33N 39°23' W 075°28'8 8.0
2015-Feb-23 15:33N 39°30' W 075°33'9 9.4
2015-Feb-23 14:33N 39°39' W 075°33'1010.1
2015-Feb-23 13:33N 39°48' W 075°26'10 9.6
2015-Feb-23 12:33N 39°52' W 075°14'1 1.3
2015-Feb-23 11:33N 39°52' W 075°12'0 0.1
2015-Feb-23 10:33N 39°52' W 075°12'0 0.0
2015-Feb-23 09:33N 39°52' W 075°12'0 0.0
2015-Feb-23 08:33N 39°52' W 075°12'0 0.0
2015-Feb-23 07:33N 39°52' W 075°12'0 0.1
2015-Feb-23 06:33N 39°52' W 075°12'0 0.0
2015-Feb-23 05:33N 39°52' W 075°12'0 0.1
2015-Feb-23 04:33N 39°52' W 075°12'0 0.1
2015-Feb-23 03:33N 39°52' W 075°13'0 0.0
2015-Feb-23 02:33N 39°52' W 075°13'0 0.0
2015-Feb-23 01:33N 39°52' W 075°13'0 0.0
2015-Feb-23 00:33N 39°52' W 075°13'0 0.0
2015-Feb-22 23:33N 39°52' W 075°13'0 0.1
2015-Feb-22 22:33N 39°52' W 075°12'0 0.1
2015-Feb-22 21:33N 39°52' W 075°12'1 0.9
2015-Feb-22 20:33N 39°52' W 075°13'0 0.0
2015-Feb-22 19:33N 39°52' W 075°13'3 2.6
2015-Feb-22 18:33N 39°53' W 075°11'0 0.1
2015-Feb-22 17:33N 39°53' W 075°11'0 0.3
2015-Feb-22 16:33N 39°53' W 075°11'1 1.2
2015-Feb-22 15:33N 39°54' W 075°12'2 1.7
2015-Feb-22 14:33N 39°52' W 075°13'0 0.5
2015-Feb-22 13:33N 39°52' W 075°13'0 0.0
2015-Feb-22 12:33N 39°52' W 075°13'0 0.0
2015-Feb-22 11:33N 39°52' W 075°13'0 0.0
2015-Feb-22 10:33N 39°52' W 075°13'0 0.1
2015-Feb-22 09:33N 39°52' W 075°13'0 0.0
2015-Feb-22 08:33N 39°52' W 075°13'0 0.0
2015-Feb-22 07:33N 39°52' W 075°13'0 0.0
2015-Feb-22 06:33N 39°52' W 075°13'0 0.0
2015-Feb-22 05:33N 39°52' W 075°13'0 0.0
2015-Feb-22 04:33N 39°52' W 075°13'0 0.1
2015-Feb-22 03:33N 39°52' W 075°13'0 0.0
2015-Feb-22 02:33N 39°52' W 075°13'0 0.0
2015-Feb-22 01:33N 39°52' W 075°13'0 0.0
2015-Feb-22 00:33N 39°52' W 075°13'0 0.0
2015-Feb-21 23:33N 39°52' W 075°13'0 0.0
2015-Feb-21 22:33N 39°52' W 075°13'0 0.1
2015-Feb-21 21:33N 39°52' W 075°13'4 0.6
2015-Feb-21 14:33N 39°53' W 075°08'  
Track history (hours):
 
Tides and Currents Weather Stations Pressure Air Temp Water Temp Dewpoint Dewpoint Depression Visibility Wind Speed Wind Dir Waves Ship Positions

Kimberly Turecamo

Owner: Moran Towing Corporation, New Canaan, CT. More information available from US FCC via Universal Licensing System and Coast Guard Vessel Documentation Center.

Last reported at 2015-Mar-01 01:22 UTC. Time now 2015-Mar-03 09:01 UTC.
Position N 34°28' W 076°16'.

Length 33 m; draft 5 m.

Type: Tug. MMSI: 367061980.

Date/timePositionNaut miles runAvg speedWind from/ knotsBaromVisibWave heightAir tempDewpointWater temp
2015-Mar-01 01:22N 34°28' W 076°16'3 3.5
2015-Mar-01 00:33N 34°27' W 076°19'21 2.9
2015-Feb-28 17:30N 34°14' W 076°38'  
2015-Feb-23 19:32N 39°03' W 075°10'9 9.4
2015-Feb-23 18:33N 39°11' W 075°16'8 7.8
2015-Feb-23 17:33N 39°17' W 075°22'8 7.7
2015-Feb-23 16:33N 39°23' W 075°28'8 8.0
2015-Feb-23 15:33N 39°30' W 075°33'9 9.4
2015-Feb-23 14:33N 39°39' W 075°33'1010.1
2015-Feb-23 13:33N 39°48' W 075°26'10 9.6
2015-Feb-23 12:33N 39°52' W 075°14'1 1.3
2015-Feb-23 11:33N 39°52' W 075°12'0 0.1
2015-Feb-23 10:33N 39°52' W 075°12'0 0.0
2015-Feb-23 09:33N 39°52' W 075°12'0 0.0
2015-Feb-23 08:33N 39°52' W 075°12'0 0.0
2015-Feb-23 07:33N 39°52' W 075°12'0 0.1
2015-Feb-23 06:33N 39°52' W 075°12'0 0.0
2015-Feb-23 05:33N 39°52' W 075°12'0 0.1
2015-Feb-23 04:33N 39°52' W 075°12'0 0.1
2015-Feb-23 03:33N 39°52' W 075°13'0 0.0
2015-Feb-23 02:33N 39°52' W 075°13'0 0.0
2015-Feb-23 01:33N 39°52' W 075°13'0 0.0
2015-Feb-23 00:33N 39°52' W 075°13'0 0.0
2015-Feb-22 23:33N 39°52' W 075°13'0 0.1
2015-Feb-22 22:33N 39°52' W 075°12'0 0.1
2015-Feb-22 21:33N 39°52' W 075°12'1 0.9
2015-Feb-22 20:33N 39°52' W 075°13'0 0.0
2015-Feb-22 19:33N 39°52' W 075°13'3 2.6
2015-Feb-22 18:33N 39°53' W 075°11'0 0.1
2015-Feb-22 17:33N 39°53' W 075°11'0 0.3
2015-Feb-22 16:33N 39°53' W 075°11'1 1.2
2015-Feb-22 15:33N 39°54' W 075°12'2 1.7
2015-Feb-22 14:33N 39°52' W 075°13'0 0.5
2015-Feb-22 13:33N 39°52' W 075°13'0 0.0
2015-Feb-22 12:33N 39°52' W 075°13'0 0.0
2015-Feb-22 11:33N 39°52' W 075°13'0 0.0
2015-Feb-22 10:33N 39°52' W 075°13'0 0.1
2015-Feb-22 09:33N 39°52' W 075°13'0 0.0
2015-Feb-22 08:33N 39°52' W 075°13'0 0.0
2015-Feb-22 07:33N 39°52' W 075°13'0 0.0
2015-Feb-22 06:33N 39°52' W 075°13'0 0.0
2015-Feb-22 05:33N 39°52' W 075°13'0 0.0
2015-Feb-22 04:33N 39°52' W 075°13'0 0.1
2015-Feb-22 03:33N 39°52' W 075°13'0 0.0
2015-Feb-22 02:33N 39°52' W 075°13'0 0.0
2015-Feb-22 01:33N 39°52' W 075°13'0 0.0
2015-Feb-22 00:33N 39°52' W 075°13'0 0.0
2015-Feb-21 23:33N 39°52' W 075°13'0 0.0
2015-Feb-21 22:33N 39°52' W 075°13'0 0.1
2015-Feb-21 21:33N 39°52' W 075°13'4 0.6
2015-Feb-21 14:33N 39°53' W 075°08'  

Dump ship's entire track history